sensor_id;sensor_type;location;lat;lon;timestamp;temperature;humidity
11540;DHT22;5826;54.756;9.192;2024-01-27T00:01:34;6.00;99.90
11540;DHT22;5826;54.756;9.192;2024-01-27T00:03:59;6.00;99.90
11540;DHT22;5826;54.756;9.192;2024-01-27T00:06:25;6.00;99.90
11540;DHT22;5826;54.756;9.192;2024-01-27T00:08:50;6.00;99.90
11540;DHT22;5826;54.756;9.192;2024-01-27T00:11:16;6.00;99.90
11540;DHT22;5826;54.756;9.192;2024-01-27T00:13:41;6.00;99.90
11540;DHT22;5826;54.756;9.192;2024-01-27T00:16:07;6.00;99.90
11540;DHT22;5826;54.756;9.192;2024-01-27T00:18:35;6.00;99.90
11540;DHT22;5826;54.756;9.192;2024-01-27T00:21:00;5.90;99.90
11540;DHT22;5826;54.756;9.192;2024-01-27T00:23:26;5.90;99.90
11540;DHT22;5826;54.756;9.192;2024-01-27T00:25:51;6.00;99.90
11540;DHT22;5826;54.756;9.192;2024-01-27T00:28:17;5.90;99.90
11540;DHT22;5826;54.756;9.192;2024-01-27T00:30:42;5.90;99.90
11540;DHT22;5826;54.756;9.192;2024-01-27T00:33:08;5.90;99.90
11540;DHT22;5826;54.756;9.192;2024-01-27T00:35:33;5.90;99.90
11540;DHT22;5826;54.756;9.192;2024-01-27T00:37:59;5.90;99.90
11540;DHT22;5826;54.756;9.192;2024-01-27T00:40:24;5.90;99.90
11540;DHT22;5826;54.756;9.192;2024-01-27T00:42:50;5.90;99.90
11540;DHT22;5826;54.756;9.192;2024-01-27T00:45:15;5.90;99.90
11540;DHT22;5826;54.756;9.192;2024-01-27T00:47:41;5.90;99.90
11540;DHT22;5826;54.756;9.192;2024-01-27T00:50:06;5.90;99.90
11540;DHT22;5826;54.756;9.192;2024-01-27T00:52:34;5.90;99.90
11540;DHT22;5826;54.756;9.192;2024-01-27T00:54:59;6.00;99.90
11540;DHT22;5826;54.756;9.192;2024-01-27T00:57:25;5.90;99.90
11540;DHT22;5826;54.756;9.192;2024-01-27T00:59:50;5.90;99.90
11540;DHT22;5826;54.756;9.192;2024-01-27T01:02:16;6.00;99.90
11540;DHT22;5826;54.756;9.192;2024-01-27T01:04:42;5.90;99.90
11540;DHT22;5826;54.756;9.192;2024-01-27T01:07:07;5.90;99.90
11540;DHT22;5826;54.756;9.192;2024-01-27T01:09:33;5.90;99.90
11540;DHT22;5826;54.756;9.192;2024-01-27T01:11:59;5.90;99.90
11540;DHT22;5826;54.756;9.192;2024-01-27T01:14:24;5.90;99.90
11540;DHT22;5826;54.756;9.192;2024-01-27T01:16:50;5.90;99.90
11540;DHT22;5826;54.756;9.192;2024-01-27T01:19:15;5.90;99.90
11540;DHT22;5826;54.756;9.192;2024-01-27T01:21:41;5.90;99.90
11540;DHT22;5826;54.756;9.192;2024-01-27T01:24:06;5.90;99.90
11540;DHT22;5826;54.756;9.192;2024-01-27T01:26:33;5.90;99.90
11540;DHT22;5826;54.756;9.192;2024-01-27T01:28:58;5.90;99.90
11540;DHT22;5826;54.756;9.192;2024-01-27T01:31:24;5.90;99.90
11540;DHT22;5826;54.756;9.192;2024-01-27T01:33:49;5.90;99.90
11540;DHT22;5826;54.756;9.192;2024-01-27T01:36:15;5.90;99.90
11540;DHT22;5826;54.756;9.192;2024-01-27T01:38:40;5.90;99.90
11540;DHT22;5826;54.756;9.192;2024-01-27T01:41:06;5.90;99.90
11540;DHT22;5826;54.756;9.192;2024-01-27T01:43:31;5.90;99.90
11540;DHT22;5826;54.756;9.192;2024-01-27T01:45:57;5.90;99.90
11540;DHT22;5826;54.756;9.192;2024-01-27T01:48:22;5.90;99.90
11540;DHT22;5826;54.756;9.192;2024-01-27T01:50:49;5.90;99.90
11540;DHT22;5826;54.756;9.192;2024-01-27T01:53:15;5.90;99.90
11540;DHT22;5826;54.756;9.192;2024-01-27T01:55:40;5.90;99.90
11540;DHT22;5826;54.756;9.192;2024-01-27T01:58:06;5.90;99.90
11540;DHT22;5826;54.756;9.192;2024-01-27T02:00:32;5.90;99.90
11540;DHT22;5826;54.756;9.192;2024-01-27T02:02:58;5.90;99.90
11540;DHT22;5826;54.756;9.192;2024-01-27T02:05:24;5.90;99.90
11540;DHT22;5826;54.756;9.192;2024-01-27T02:07:50;6.00;99.90
11540;DHT22;5826;54.756;9.192;2024-01-27T02:10:17;5.90;99.90
11540;DHT22;5826;54.756;9.192;2024-01-27T02:12:43;5.90;99.90
11540;DHT22;5826;54.756;9.192;2024-01-27T02:15:10;5.90;99.90
11540;DHT22;5826;54.756;9.192;2024-01-27T02:17:37;5.90;99.90
11540;DHT22;5826;54.756;9.192;2024-01-27T02:20:03;6.00;99.90
11540;DHT22;5826;54.756;9.192;2024-01-27T02:22:29;5.90;99.90
11540;DHT22;5826;54.756;9.192;2024-01-27T02:24:55;5.90;99.90
11540;DHT22;5826;54.756;9.192;2024-01-27T02:27:20;5.90;99.90
11540;DHT22;5826;54.756;9.192;2024-01-27T02:29:45;5.90;99.90
11540;DHT22;5826;54.756;9.192;2024-01-27T02:32:11;5.90;99.90
11540;DHT22;5826;54.756;9.192;2024-01-27T02:34:36;5.90;99.90
11540;DHT22;5826;54.756;9.192;2024-01-27T02:37:02;5.90;99.90
11540;DHT22;5826;54.756;9.192;2024-01-27T02:39:28;5.90;99.90
11540;DHT22;5826;54.756;9.192;2024-01-27T02:41:53;5.90;99.90
11540;DHT22;5826;54.756;9.192;2024-01-27T02:44:19;5.90;99.90
11540;DHT22;5826;54.756;9.192;2024-01-27T02:46:44;5.90;99.90
11540;DHT22;5826;54.756;9.192;2024-01-27T02:49:10;5.90;99.90
11540;DHT22;5826;54.756;9.192;2024-01-27T02:51:36;5.90;99.90
11540;DHT22;5826;54.756;9.192;2024-01-27T02:54:01;5.90;99.90
11540;DHT22;5826;54.756;9.192;2024-01-27T02:56:27;5.90;99.90
11540;DHT22;5826;54.756;9.192;2024-01-27T02:58:52;5.90;99.90
11540;DHT22;5826;54.756;9.192;2024-01-27T03:01:18;5.90;99.90
11540;DHT22;5826;54.756;9.192;2024-01-27T03:03:43;5.90;99.90
11540;DHT22;5826;54.756;9.192;2024-01-27T03:06:09;5.90;99.90
11540;DHT22;5826;54.756;9.192;2024-01-27T03:08:34;5.90;99.90
11540;DHT22;5826;54.756;9.192;2024-01-27T03:11:00;5.90;99.90
11540;DHT22;5826;54.756;9.192;2024-01-27T03:13:25;5.90;99.90
11540;DHT22;5826;54.756;9.192;2024-01-27T03:15:51;6.00;99.90
11540;DHT22;5826;54.756;9.192;2024-01-27T03:18:17;5.90;99.90
11540;DHT22;5826;54.756;9.192;2024-01-27T03:20:43;5.90;99.90
11540;DHT22;5826;54.756;9.192;2024-01-27T03:23:08;5.90;99.90
11540;DHT22;5826;54.756;9.192;2024-01-27T03:25:34;5.90;99.90
11540;DHT22;5826;54.756;9.192;2024-01-27T03:27:59;5.90;99.90
11540;DHT22;5826;54.756;9.192;2024-01-27T03:30:26;5.90;99.90
11540;DHT22;5826;54.756;9.192;2024-01-27T03:32:51;5.90;99.90
11540;DHT22;5826;54.756;9.192;2024-01-27T03:35:17;5.90;99.90
11540;DHT22;5826;54.756;9.192;2024-01-27T03:37:42;5.90;99.90
11540;DHT22;5826;54.756;9.192;2024-01-27T03:40:08;5.80;99.90
11540;DHT22;5826;54.756;9.192;2024-01-27T03:42:34;5.90;99.90
11540;DHT22;5826;54.756;9.192;2024-01-27T03:45:00;5.90;99.90
11540;DHT22;5826;54.756;9.192;2024-01-27T03:47:25;5.90;99.90
11540;DHT22;5826;54.756;9.192;2024-01-27T03:49:51;5.90;99.90
11540;DHT22;5826;54.756;9.192;2024-01-27T03:52:16;5.80;99.90
11540;DHT22;5826;54.756;9.192;2024-01-27T03:54:42;5.90;99.90
11540;DHT22;5826;54.756;9.192;2024-01-27T03:57:07;5.80;99.90
11540;DHT22;5826;54.756;9.192;2024-01-27T03:59:33;5.90;99.90
11540;DHT22;5826;54.756;9.192;2024-01-27T04:01:58;5.90;99.90
11540;DHT22;5826;54.756;9.192;2024-01-27T04:04:23;5.90;99.90
11540;DHT22;5826;54.756;9.192;2024-01-27T04:06:49;5.90;99.90
11540;DHT22;5826;54.756;9.192;2024-01-27T04:09:15;5.80;99.90
11540;DHT22;5826;54.756;9.192;2024-01-27T04:11:41;5.80;99.90
11540;DHT22;5826;54.756;9.192;2024-01-27T04:14:07;5.80;99.90
11540;DHT22;5826;54.756;9.192;2024-01-27T04:16:33;5.80;99.90
11540;DHT22;5826;54.756;9.192;2024-01-27T04:18:58;5.80;99.90
11540;DHT22;5826;54.756;9.192;2024-01-27T04:21:24;5.80;99.90
11540;DHT22;5826;54.756;9.192;2024-01-27T04:23:49;5.80;99.90
11540;DHT22;5826;54.756;9.192;2024-01-27T04:26:15;5.80;99.90
11540;DHT22;5826;54.756;9.192;2024-01-27T04:28:41;5.80;99.90
11540;DHT22;5826;54.756;9.192;2024-01-27T04:31:06;5.80;99.90
11540;DHT22;5826;54.756;9.192;2024-01-27T04:33:32;5.80;99.90
11540;DHT22;5826;54.756;9.192;2024-01-27T04:35:58;5.80;99.90
11540;DHT22;5826;54.756;9.192;2024-01-27T04:38:23;5.80;99.90
11540;DHT22;5826;54.756;9.192;2024-01-27T04:40:51;5.80;99.90
11540;DHT22;5826;54.756;9.192;2024-01-27T04:43:18;5.80;99.90
11540;DHT22;5826;54.756;9.192;2024-01-27T04:45:45;5.80;99.90
11540;DHT22;5826;54.756;9.192;2024-01-27T04:48:11;5.80;99.90
11540;DHT22;5826;54.756;9.192;2024-01-27T04:50:36;5.70;99.90
11540;DHT22;5826;54.756;9.192;2024-01-27T04:53:02;5.80;99.90
11540;DHT22;5826;54.756;9.192;2024-01-27T04:55:28;5.70;99.90
11540;DHT22;5826;54.756;9.192;2024-01-27T04:57:53;5.70;99.90
11540;DHT22;5826;54.756;9.192;2024-01-27T05:00:19;5.70;99.90
11540;DHT22;5826;54.756;9.192;2024-01-27T05:02:45;5.70;99.90
11540;DHT22;5826;54.756;9.192;2024-01-27T05:05:11;5.70;99.90
11540;DHT22;5826;54.756;9.192;2024-01-27T05:07:37;5.70;99.90
11540;DHT22;5826;54.756;9.192;2024-01-27T05:10:03;5.70;99.90
11540;DHT22;5826;54.756;9.192;2024-01-27T05:12:29;5.70;99.90
11540;DHT22;5826;54.756;9.192;2024-01-27T05:14:54;5.70;99.90
11540;DHT22;5826;54.756;9.192;2024-01-27T05:17:20;5.60;99.90
11540;DHT22;5826;54.756;9.192;2024-01-27T05:19:45;5.70;99.90
11540;DHT22;5826;54.756;9.192;2024-01-27T05:22:11;5.60;99.90
11540;DHT22;5826;54.756;9.192;2024-01-27T05:24:37;5.60;99.90
11540;DHT22;5826;54.756;9.192;2024-01-27T05:27:02;5.60;99.90
11540;DHT22;5826;54.756;9.192;2024-01-27T05:29:28;5.60;99.90
11540;DHT22;5826;54.756;9.192;2024-01-27T05:31:54;5.60;99.90
11540;DHT22;5826;54.756;9.192;2024-01-27T05:34:19;5.50;99.90
11540;DHT22;5826;54.756;9.192;2024-01-27T05:36:47;5.60;99.90
11540;DHT22;5826;54.756;9.192;2024-01-27T05:39:12;5.60;99.90
11540;DHT22;5826;54.756;9.192;2024-01-27T05:41:37;5.60;99.90
11540;DHT22;5826;54.756;9.192;2024-01-27T05:44:03;5.60;99.90
11540;DHT22;5826;54.756;9.192;2024-01-27T05:46:29;5.60;99.90
11540;DHT22;5826;54.756;9.192;2024-01-27T05:48:54;5.60;99.90
11540;DHT22;5826;54.756;9.192;2024-01-27T05:51:23;5.60;99.90
11540;DHT22;5826;54.756;9.192;2024-01-27T05:53:49;5.60;99.90
11540;DHT22;5826;54.756;9.192;2024-01-27T05:56:15;5.60;99.90
11540;DHT22;5826;54.756;9.192;2024-01-27T05:58:41;5.60;99.90
11540;DHT22;5826;54.756;9.192;2024-01-27T06:01:07;5.60;99.90
11540;DHT22;5826;54.756;9.192;2024-01-27T06:03:34;5.60;99.90
11540;DHT22;5826;54.756;9.192;2024-01-27T06:06:01;5.50;99.90
11540;DHT22;5826;54.756;9.192;2024-01-27T06:08:26;5.50;99.90
11540;DHT22;5826;54.756;9.192;2024-01-27T06:10:52;5.50;99.90
11540;DHT22;5826;54.756;9.192;2024-01-27T06:13:18;5.50;99.90
11540;DHT22;5826;54.756;9.192;2024-01-27T06:15:43;5.50;99.90
11540;DHT22;5826;54.756;9.192;2024-01-27T06:18:08;5.50;99.90
11540;DHT22;5826;54.756;9.192;2024-01-27T06:20:34;5.50;99.90
11540;DHT22;5826;54.756;9.192;2024-01-27T06:22:59;5.40;99.90
11540;DHT22;5826;54.756;9.192;2024-01-27T06:25:25;5.40;99.90
11540;DHT22;5826;54.756;9.192;2024-01-27T06:27:50;5.40;99.90
11540;DHT22;5826;54.756;9.192;2024-01-27T06:30:16;5.40;99.90
11540;DHT22;5826;54.756;9.192;2024-01-27T06:32:42;5.40;99.90
11540;DHT22;5826;54.756;9.192;2024-01-27T06:35:08;5.40;99.90
11540;DHT22;5826;54.756;9.192;2024-01-27T06:37:34;5.40;99.90
11540;DHT22;5826;54.756;9.192;2024-01-27T06:39:59;5.40;99.90
11540;DHT22;5826;54.756;9.192;2024-01-27T06:42:24;5.40;99.90
11540;DHT22;5826;54.756;9.192;2024-01-27T06:44:50;5.40;99.90
11540;DHT22;5826;54.756;9.192;2024-01-27T06:47:16;5.40;99.90
11540;DHT22;5826;54.756;9.192;2024-01-27T06:49:41;5.40;99.90
11540;DHT22;5826;54.756;9.192;2024-01-27T06:52:06;5.40;99.90
11540;DHT22;5826;54.756;9.192;2024-01-27T06:54:32;5.40;99.90
11540;DHT22;5826;54.756;9.192;2024-01-27T06:56:59;5.40;99.90
11540;DHT22;5826;54.756;9.192;2024-01-27T06:59:26;5.40;99.90
11540;DHT22;5826;54.756;9.192;2024-01-27T07:01:51;5.40;99.90
11540;DHT22;5826;54.756;9.192;2024-01-27T07:04:17;5.40;99.90
11540;DHT22;5826;54.756;9.192;2024-01-27T07:06:43;5.40;99.90
11540;DHT22;5826;54.756;9.192;2024-01-27T07:09:09;5.40;99.90
11540;DHT22;5826;54.756;9.192;2024-01-27T07:11:35;5.40;99.90
11540;DHT22;5826;54.756;9.192;2024-01-27T07:14:01;5.40;99.90
11540;DHT22;5826;54.756;9.192;2024-01-27T07:16:26;5.40;99.90
11540;DHT22;5826;54.756;9.192;2024-01-27T07:18:51;5.40;99.90
11540;DHT22;5826;54.756;9.192;2024-01-27T07:21:17;5.40;99.90
11540;DHT22;5826;54.756;9.192;2024-01-27T07:23:43;5.30;99.90
11540;DHT22;5826;54.756;9.192;2024-01-27T07:26:10;5.30;99.90
11540;DHT22;5826;54.756;9.192;2024-01-27T07:28:36;5.30;99.90
11540;DHT22;5826;54.756;9.192;2024-01-27T07:31:02;5.30;99.90
11540;DHT22;5826;54.756;9.192;2024-01-27T07:33:27;5.30;99.90
11540;DHT22;5826;54.756;9.192;2024-01-27T07:35:53;5.30;99.90
11540;DHT22;5826;54.756;9.192;2024-01-27T07:38:18;5.30;99.90
11540;DHT22;5826;54.756;9.192;2024-01-27T07:40:43;5.30;99.90
11540;DHT22;5826;54.756;9.192;2024-01-27T07:43:09;5.40;99.90
11540;DHT22;5826;54.756;9.192;2024-01-27T07:45:34;5.40;99.90
11540;DHT22;5826;54.756;9.192;2024-01-27T07:48:00;5.40;99.90
11540;DHT22;5826;54.756;9.192;2024-01-27T07:50:26;5.40;99.90
11540;DHT22;5826;54.756;9.192;2024-01-27T07:52:51;5.40;99.90
11540;DHT22;5826;54.756;9.192;2024-01-27T07:55:17;5.40;99.90
11540;DHT22;5826;54.756;9.192;2024-01-27T07:57:42;5.40;99.90
11540;DHT22;5826;54.756;9.192;2024-01-27T08:00:08;5.40;99.90
11540;DHT22;5826;54.756;9.192;2024-01-27T08:02:34;5.40;99.90
11540;DHT22;5826;54.756;9.192;2024-01-27T08:05:00;5.40;99.90
11540;DHT22;5826;54.756;9.192;2024-01-27T08:07:25;5.40;99.90
11540;DHT22;5826;54.756;9.192;2024-01-27T08:09:51;5.50;99.90
11540;DHT22;5826;54.756;9.192;2024-01-27T08:12:16;5.50;99.90
11540;DHT22;5826;54.756;9.192;2024-01-27T08:14:42;5.50;99.90
11540;DHT22;5826;54.756;9.192;2024-01-27T08:17:08;5.50;99.90
11540;DHT22;5826;54.756;9.192;2024-01-27T08:19:33;5.50;99.90
11540;DHT22;5826;54.756;9.192;2024-01-27T08:21:59;5.50;99.90
11540;DHT22;5826;54.756;9.192;2024-01-27T08:24:25;5.60;99.90
11540;DHT22;5826;54.756;9.192;2024-01-27T08:26:51;5.60;99.90
11540;DHT22;5826;54.756;9.192;2024-01-27T08:29:16;5.60;99.90
11540;DHT22;5826;54.756;9.192;2024-01-27T08:31:42;5.70;99.90
11540;DHT22;5826;54.756;9.192;2024-01-27T08:34:08;5.70;99.90
11540;DHT22;5826;54.756;9.192;2024-01-27T08:36:34;5.70;99.90
11540;DHT22;5826;54.756;9.192;2024-01-27T08:39:00;5.80;99.90
11540;DHT22;5826;54.756;9.192;2024-01-27T08:41:25;5.80;99.90
11540;DHT22;5826;54.756;9.192;2024-01-27T08:43:51;5.90;99.90
11540;DHT22;5826;54.756;9.192;2024-01-27T08:46:17;5.90;99.90
11540;DHT22;5826;54.756;9.192;2024-01-27T08:48:45;6.00;99.90
11540;DHT22;5826;54.756;9.192;2024-01-27T08:51:10;6.00;99.90
11540;DHT22;5826;54.756;9.192;2024-01-27T08:53:38;6.00;99.90
11540;DHT22;5826;54.756;9.192;2024-01-27T08:56:03;6.10;99.90
11540;DHT22;5826;54.756;9.192;2024-01-27T08:58:30;6.20;99.90
11540;DHT22;5826;54.756;9.192;2024-01-27T09:00:55;6.20;99.90
11540;DHT22;5826;54.756;9.192;2024-01-27T09:03:21;6.20;99.90
11540;DHT22;5826;54.756;9.192;2024-01-27T09:05:47;6.30;99.90
11540;DHT22;5826;54.756;9.192;2024-01-27T09:08:12;6.30;99.90
11540;DHT22;5826;54.756;9.192;2024-01-27T09:10:38;6.30;99.90
11540;DHT22;5826;54.756;9.192;2024-01-27T09:13:04;6.30;99.90
11540;DHT22;5826;54.756;9.192;2024-01-27T09:15:30;6.30;99.90
11540;DHT22;5826;54.756;9.192;2024-01-27T09:17:55;6.40;99.90
11540;DHT22;5826;54.756;9.192;2024-01-27T09:20:22;6.40;99.90
11540;DHT22;5826;54.756;9.192;2024-01-27T09:22:48;6.40;99.90
11540;DHT22;5826;54.756;9.192;2024-01-27T09:25:15;6.50;99.90
11540;DHT22;5826;54.756;9.192;2024-01-27T09:27:40;6.50;99.90
11540;DHT22;5826;54.756;9.192;2024-01-27T09:30:07;6.50;99.90
11540;DHT22;5826;54.756;9.192;2024-01-27T09:32:32;6.60;99.90
11540;DHT22;5826;54.756;9.192;2024-01-27T09:34:58;6.70;99.90
11540;DHT22;5826;54.756;9.192;2024-01-27T09:37:23;6.80;99.90
11540;DHT22;5826;54.756;9.192;2024-01-27T09:39:49;6.90;99.90
11540;DHT22;5826;54.756;9.192;2024-01-27T09:42:14;6.90;99.90
11540;DHT22;5826;54.756;9.192;2024-01-27T09:44:43;6.90;99.90
11540;DHT22;5826;54.756;9.192;2024-01-27T09:47:11;6.90;99.90
11540;DHT22;5826;54.756;9.192;2024-01-27T09:49:39;6.90;99.90
11540;DHT22;5826;54.756;9.192;2024-01-27T09:52:05;6.90;99.90
11540;DHT22;5826;54.756;9.192;2024-01-27T09:54:31;6.90;99.90
11540;DHT22;5826;54.756;9.192;2024-01-27T09:56:57;7.00;99.90
11540;DHT22;5826;54.756;9.192;2024-01-27T09:59:25;7.00;99.90
11540;DHT22;5826;54.756;9.192;2024-01-27T10:01:52;7.00;99.90
11540;DHT22;5826;54.756;9.192;2024-01-27T10:04:19;7.10;99.90
11540;DHT22;5826;54.756;9.192;2024-01-27T10:06:47;7.20;99.90
11540;DHT22;5826;54.756;9.192;2024-01-27T10:09:14;7.20;99.90
11540;DHT22;5826;54.756;9.192;2024-01-27T10:11:45;7.20;99.90
11540;DHT22;5826;54.756;9.192;2024-01-27T10:14:10;7.30;99.90
11540;DHT22;5826;54.756;9.192;2024-01-27T10:16:43;7.30;99.90
11540;DHT22;5826;54.756;9.192;2024-01-27T10:19:17;7.30;99.90
11540;DHT22;5826;54.756;9.192;2024-01-27T10:21:46;7.40;99.90
11540;DHT22;5826;54.756;9.192;2024-01-27T10:24:12;7.40;99.90
11540;DHT22;5826;54.756;9.192;2024-01-27T10:26:38;7.40;99.90
11540;DHT22;5826;54.756;9.192;2024-01-27T10:29:03;7.50;99.90
11540;DHT22;5826;54.756;9.192;2024-01-27T10:31:31;7.50;99.90
11540;DHT22;5826;54.756;9.192;2024-01-27T10:33:57;7.50;99.90
11540;DHT22;5826;54.756;9.192;2024-01-27T10:36:24;7.50;99.90
11540;DHT22;5826;54.756;9.192;2024-01-27T10:38:49;7.60;99.90
11540;DHT22;5826;54.756;9.192;2024-01-27T10:41:22;7.70;99.90
11540;DHT22;5826;54.756;9.192;2024-01-27T10:43:50;7.70;99.90
11540;DHT22;5826;54.756;9.192;2024-01-27T10:46:19;7.60;99.90
11540;DHT22;5826;54.756;9.192;2024-01-27T10:48:50;7.70;99.90
11540;DHT22;5826;54.756;9.192;2024-01-27T10:51:22;7.70;99.90
11540;DHT22;5826;54.756;9.192;2024-01-27T10:53:51;7.80;99.90
11540;DHT22;5826;54.756;9.192;2024-01-27T10:56:18;7.80;99.90
11540;DHT22;5826;54.756;9.192;2024-01-27T10:58:45;7.80;99.90
11540;DHT22;5826;54.756;9.192;2024-01-27T11:01:13;7.90;99.90
11540;DHT22;5826;54.756;9.192;2024-01-27T11:03:39;7.90;99.90
11540;DHT22;5826;54.756;9.192;2024-01-27T11:06:06;7.90;99.90
11540;DHT22;5826;54.756;9.192;2024-01-27T11:08:33;7.90;99.90
11540;DHT22;5826;54.756;9.192;2024-01-27T11:10:59;7.90;99.90
11540;DHT22;5826;54.756;9.192;2024-01-27T11:13:25;8.00;99.90
11540;DHT22;5826;54.756;9.192;2024-01-27T11:15:53;8.10;99.90
11540;DHT22;5826;54.756;9.192;2024-01-27T11:18:19;8.10;99.90
11540;DHT22;5826;54.756;9.192;2024-01-27T11:20:45;8.00;99.90
11540;DHT22;5826;54.756;9.192;2024-01-27T11:23:12;8.10;99.90
11540;DHT22;5826;54.756;9.192;2024-01-27T11:25:40;8.10;99.90
11540;DHT22;5826;54.756;9.192;2024-01-27T11:28:13;8.10;99.90
11540;DHT22;5826;54.756;9.192;2024-01-27T11:30:39;8.10;99.90
11540;DHT22;5826;54.756;9.192;2024-01-27T11:33:05;8.00;99.90
11540;DHT22;5826;54.756;9.192;2024-01-27T11:35:31;8.10;99.90
11540;DHT22;5826;54.756;9.192;2024-01-27T11:37:57;8.00;99.90
11540;DHT22;5826;54.756;9.192;2024-01-27T11:40:22;7.90;99.90
11540;DHT22;5826;54.756;9.192;2024-01-27T11:42:58;7.90;99.90
11540;DHT22;5826;54.756;9.192;2024-01-27T11:45:24;7.90;99.90
11540;DHT22;5826;54.756;9.192;2024-01-27T11:47:50;8.00;99.90
11540;DHT22;5826;54.756;9.192;2024-01-27T11:50:19;8.10;99.90
11540;DHT22;5826;54.756;9.192;2024-01-27T11:52:46;8.20;99.90
11540;DHT22;5826;54.756;9.192;2024-01-27T11:55:12;8.40;99.90
11540;DHT22;5826;54.756;9.192;2024-01-27T11:57:37;8.40;99.90
11540;DHT22;5826;54.756;9.192;2024-01-27T12:00:03;8.50;99.90
11540;DHT22;5826;54.756;9.192;2024-01-27T12:02:29;8.40;99.90
11540;DHT22;5826;54.756;9.192;2024-01-27T12:04:55;8.40;99.90
11540;DHT22;5826;54.756;9.192;2024-01-27T12:07:20;8.30;99.90
11540;DHT22;5826;54.756;9.192;2024-01-27T12:09:48;8.30;99.90
11540;DHT22;5826;54.756;9.192;2024-01-27T12:12:14;8.30;99.90
11540;DHT22;5826;54.756;9.192;2024-01-27T12:14:46;8.30;99.90
11540;DHT22;5826;54.756;9.192;2024-01-27T12:17:12;8.30;99.90
11540;DHT22;5826;54.756;9.192;2024-01-27T12:19:39;8.40;99.90
11540;DHT22;5826;54.756;9.192;2024-01-27T12:22:05;8.30;99.90
11540;DHT22;5826;54.756;9.192;2024-01-27T12:24:44;8.30;99.90
11540;DHT22;5826;54.756;9.192;2024-01-27T12:27:10;8.30;99.90
11540;DHT22;5826;54.756;9.192;2024-01-27T12:29:36;8.20;99.90
11540;DHT22;5826;54.756;9.192;2024-01-27T12:32:01;8.20;99.90
11540;DHT22;5826;54.756;9.192;2024-01-27T12:34:29;8.20;99.90
11540;DHT22;5826;54.756;9.192;2024-01-27T12:36:55;8.20;99.90
11540;DHT22;5826;54.756;9.192;2024-01-27T12:39:20;8.10;99.90
11540;DHT22;5826;54.756;9.192;2024-01-27T12:41:46;8.10;99.90
11540;DHT22;5826;54.756;9.192;2024-01-27T12:44:12;8.00;99.90
11540;DHT22;5826;54.756;9.192;2024-01-27T12:46:37;8.00;99.90
11540;DHT22;5826;54.756;9.192;2024-01-27T12:49:04;8.00;99.90
11540;DHT22;5826;54.756;9.192;2024-01-27T12:51:29;8.00;99.90
11540;DHT22;5826;54.756;9.192;2024-01-27T12:53:55;8.10;99.90
11540;DHT22;5826;54.756;9.192;2024-01-27T12:56:20;8.00;99.90
11540;DHT22;5826;54.756;9.192;2024-01-27T12:58:46;8.00;99.90
11540;DHT22;5826;54.756;9.192;2024-01-27T13:01:11;7.90;99.90
11540;DHT22;5826;54.756;9.192;2024-01-27T13:03:37;7.90;99.90
11540;DHT22;5826;54.756;9.192;2024-01-27T13:06:03;7.90;99.90
11540;DHT22;5826;54.756;9.192;2024-01-27T13:08:28;7.90;99.90
11540;DHT22;5826;54.756;9.192;2024-01-27T13:10:54;7.80;99.90
11540;DHT22;5826;54.756;9.192;2024-01-27T13:13:20;7.80;99.90
11540;DHT22;5826;54.756;9.192;2024-01-27T13:15:46;7.90;99.90
11540;DHT22;5826;54.756;9.192;2024-01-27T13:18:11;7.90;99.90
11540;DHT22;5826;54.756;9.192;2024-01-27T13:20:37;7.90;99.90
11540;DHT22;5826;54.756;9.192;2024-01-27T13:23:02;7.90;99.90
11540;DHT22;5826;54.756;9.192;2024-01-27T13:25:28;7.80;99.90
11540;DHT22;5826;54.756;9.192;2024-01-27T13:27:55;7.80;99.90
11540;DHT22;5826;54.756;9.192;2024-01-27T13:30:21;7.80;99.90
11540;DHT22;5826;54.756;9.192;2024-01-27T13:32:46;7.80;99.90
11540;DHT22;5826;54.756;9.192;2024-01-27T13:35:12;7.80;99.90
11540;DHT22;5826;54.756;9.192;2024-01-27T13:37:38;7.70;99.90
11540;DHT22;5826;54.756;9.192;2024-01-27T13:40:05;7.70;99.90
11540;DHT22;5826;54.756;9.192;2024-01-27T13:42:32;7.60;99.90
11540;DHT22;5826;54.756;9.192;2024-01-27T13:44:58;7.70;99.90
11540;DHT22;5826;54.756;9.192;2024-01-27T13:47:23;7.70;99.90
11540;DHT22;5826;54.756;9.192;2024-01-27T13:49:49;7.70;99.90
11540;DHT22;5826;54.756;9.192;2024-01-27T13:52:14;7.70;99.90
11540;DHT22;5826;54.756;9.192;2024-01-27T13:54:40;7.70;99.90
11540;DHT22;5826;54.756;9.192;2024-01-27T13:57:06;7.80;99.90
11540;DHT22;5826;54.756;9.192;2024-01-27T13:59:31;7.90;99.90
11540;DHT22;5826;54.756;9.192;2024-01-27T14:02:00;7.90;99.90
11540;DHT22;5826;54.756;9.192;2024-01-27T14:04:26;7.80;99.90
11540;DHT22;5826;54.756;9.192;2024-01-27T14:06:55;7.80;99.90
11540;DHT22;5826;54.756;9.192;2024-01-27T14:09:21;7.90;99.90
11540;DHT22;5826;54.756;9.192;2024-01-27T14:11:47;7.80;99.90
11540;DHT22;5826;54.756;9.192;2024-01-27T14:14:13;7.80;99.90
11540;DHT22;5826;54.756;9.192;2024-01-27T14:16:38;7.90;99.90
11540;DHT22;5826;54.756;9.192;2024-01-27T14:19:05;8.00;99.90
11540;DHT22;5826;54.756;9.192;2024-01-27T14:21:31;8.10;99.90
11540;DHT22;5826;54.756;9.192;2024-01-27T14:23:56;8.20;99.90
11540;DHT22;5826;54.756;9.192;2024-01-27T14:26:29;8.10;99.90
11540;DHT22;5826;54.756;9.192;2024-01-27T14:28:55;8.10;99.90
11540;DHT22;5826;54.756;9.192;2024-01-27T14:31:21;8.10;99.90
11540;DHT22;5826;54.756;9.192;2024-01-27T14:33:47;8.00;99.90
11540;DHT22;5826;54.756;9.192;2024-01-27T14:36:13;8.00;99.90
11540;DHT22;5826;54.756;9.192;2024-01-27T14:38:39;7.90;99.90
11540;DHT22;5826;54.756;9.192;2024-01-27T14:41:09;7.80;99.90
11540;DHT22;5826;54.756;9.192;2024-01-27T14:43:37;7.70;99.90
11540;DHT22;5826;54.756;9.192;2024-01-27T14:46:03;7.70;99.90
11540;DHT22;5826;54.756;9.192;2024-01-27T14:48:29;7.70;99.90
11540;DHT22;5826;54.756;9.192;2024-01-27T14:50:55;7.70;99.90
11540;DHT22;5826;54.756;9.192;2024-01-27T14:53:25;7.60;99.90
11540;DHT22;5826;54.756;9.192;2024-01-27T14:55:50;7.60;99.90
11540;DHT22;5826;54.756;9.192;2024-01-27T14:58:16;7.60;99.90
11540;DHT22;5826;54.756;9.192;2024-01-27T15:00:42;7.60;99.90
11540;DHT22;5826;54.756;9.192;2024-01-27T15:03:08;7.50;99.90
11540;DHT22;5826;54.756;9.192;2024-01-27T15:05:33;7.50;99.90
11540;DHT22;5826;54.756;9.192;2024-01-27T15:08:02;7.40;99.90
11540;DHT22;5826;54.756;9.192;2024-01-27T15:10:28;7.40;99.90
11540;DHT22;5826;54.756;9.192;2024-01-27T15:12:53;7.30;99.90
11540;DHT22;5826;54.756;9.192;2024-01-27T15:15:19;7.30;99.90
11540;DHT22;5826;54.756;9.192;2024-01-27T15:17:44;7.30;99.90
11540;DHT22;5826;54.756;9.192;2024-01-27T15:20:10;7.30;99.90
11540;DHT22;5826;54.756;9.192;2024-01-27T15:22:37;7.30;99.90
11540;DHT22;5826;54.756;9.192;2024-01-27T15:25:03;7.20;99.90
11540;DHT22;5826;54.756;9.192;2024-01-27T15:27:29;7.20;99.90
11540;DHT22;5826;54.756;9.192;2024-01-27T15:29:54;7.10;99.90
11540;DHT22;5826;54.756;9.192;2024-01-27T15:32:20;7.10;99.90
11540;DHT22;5826;54.756;9.192;2024-01-27T15:34:49;7.00;99.90
11540;DHT22;5826;54.756;9.192;2024-01-27T15:37:15;7.00;99.90
11540;DHT22;5826;54.756;9.192;2024-01-27T15:39:40;6.90;99.90
11540;DHT22;5826;54.756;9.192;2024-01-27T15:42:08;6.90;99.90
11540;DHT22;5826;54.756;9.192;2024-01-27T15:44:33;6.80;99.90
11540;DHT22;5826;54.756;9.192;2024-01-27T15:46:59;6.80;99.90
11540;DHT22;5826;54.756;9.192;2024-01-27T15:49:25;6.80;99.90
11540;DHT22;5826;54.756;9.192;2024-01-27T15:51:51;6.70;99.90
11540;DHT22;5826;54.756;9.192;2024-01-27T15:54:16;6.70;99.90